Time;durP1;ratioP1;P1;durP2;ratioP2;P2;SDS_P1;SDS_P2;PMS_P1;PMS_P2;Temp;Humidity;BMP_temperature;BMP_pressure;BME280_temperature;BME280_humidity;BME280_pressure;Samples;Min_cycle;Max_cycle;Signal;HPM_P1;HPM_P2
2022/10/24 00:00:15;;;;;;;6.25;1.88;;;;;;;;;;4910205;29;20031;-82
2022/10/24 00:02:40;;;;;;;5.93;2.10;;;;;;;;;;4930960;29;20484;-83
2022/10/24 00:05:06;;;;;;;6.18;1.77;;;;;;;;;;4914948;29;20027;-82
2022/10/24 00:07:31;;;;;;;3.42;1.42;;;;;;;;;;4916809;29;20130;-82
2022/10/24 00:09:56;;;;;;;7.05;1.65;;;;;;;;;;4913506;29;20028;-83
2022/10/24 00:12:22;;;;;;;6.60;1.60;;;;;;;;;;4915462;29;20036;-83
2022/10/24 00:14:47;;;;;;;5.40;1.88;;;;;;;;;;4913350;29;20032;-83
2022/10/24 00:17:12;;;;;;;5.97;1.60;;;;;;;;;;4914179;29;20489;-82
2022/10/24 00:19:38;;;;;;;5.13;1.40;;;;;;;;;;4913808;29;20039;-82
2022/10/24 00:22:03;;;;;;;4.30;1.60;;;;;;;;;;4914316;29;20079;-82
2022/10/24 00:24:29;;;;;;;10.48;2.03;;;;;;;;;;4915875;29;20082;-83
2022/10/24 00:26:54;;;;;;;6.15;1.65;;;;;;;;;;4928982;29;20448;-83
2022/10/24 00:29:20;;;;;;;5.18;1.42;;;;;;;;;;4912713;29;20028;-83
2022/10/24 00:31:46;;;;;;;3.80;1.30;;;;;;;;;;4913424;29;20023;-83
2022/10/24 00:34:11;;;;;;;5.20;1.70;;;;;;;;;;4911518;29;20039;-82
2022/10/24 00:36:36;;;;;;;7.45;1.80;;;;;;;;;;4912006;29;20039;-83
2022/10/24 00:39:02;;;;;;;4.65;1.30;;;;;;;;;;4918119;29;20332;-82
2022/10/24 00:41:41;;;;;;;7.03;1.70;;;;;;;;;;4913778;29;20020;-82
2022/10/24 00:44:15;;;;;;;4.75;1.33;;;;;;;;;;4914068;29;20439;-84
2022/10/24 00:47:14;;;;;;;6.00;1.50;;;;;;;;;;4914792;29;20035;-83
2022/10/24 00:49:48;;;;;;;6.47;1.55;;;;;;;;;;4928824;29;20077;-82
2022/10/24 00:52:18;;;;;;;4.82;1.27;;;;;;;;;;4928339;29;20031;-82
2022/10/24 00:54:45;;;;;;;3.97;1.23;;;;;;;;;;4915397;29;20027;-83
2022/10/24 00:57:16;;;;;;;6.05;1.30;;;;;;;;;;4931241;29;20555;-82
2022/10/24 00:59:45;;;;;;;3.92;1.23;;;;;;;;;;4928169;29;20036;-83
2022/10/24 01:02:11;;;;;;;5.35;1.45;;;;;;;;;;4915358;29;20416;-82
2022/10/24 01:04:36;;;;;;;4.70;1.52;;;;;;;;;;4930884;29;20035;-83
2022/10/24 01:07:23;;;;;;;3.08;1.25;;;;;;;;;;4912795;29;20391;-84
2022/10/24 01:10:18;;;;;;;4.05;1.35;;;;;;;;;;4928513;29;20051;-82
2022/10/24 01:13:04;;;;;;;2.95;1.25;;;;;;;;;;4912461;29;20492;-82
2022/10/24 01:15:48;;;;;;;5.45;2.00;;;;;;;;;;4925392;29;20035;-82
2022/10/24 01:18:17;;;;;;;4.80;1.50;;;;;;;;;;4923287;29;20121;-83
2022/10/24 01:20:55;;;;;;;4.88;1.38;;;;;;;;;;4930978;29;20424;-83
2022/10/24 01:23:55;;;;;;;4.00;1.60;;;;;;;;;;4930641;29;20102;-82
2022/10/24 01:26:26;;;;;;;2.97;1.38;;;;;;;;;;4927923;29;20083;-83
2022/10/24 01:29:19;;;;;;;7.00;1.70;;;;;;;;;;4928188;29;20067;-82
2022/10/24 01:31:56;;;;;;;4.22;1.50;;;;;;;;;;4929165;29;20035;-82
2022/10/24 01:34:21;;;;;;;3.15;1.45;;;;;;;;;;4912188;29;20127;-83
2022/10/24 01:37:03;;;;;;;6.32;1.70;;;;;;;;;;4927965;29;20110;-82
2022/10/24 01:39:36;;;;;;;6.13;1.70;;;;;;;;;;4927179;29;20024;-83
2022/10/24 01:42:05;;;;;;;2.92;1.50;;;;;;;;;;4911105;29;20032;-83
2022/10/24 01:44:36;;;;;;;5.88;1.70;;;;;;;;;;4925623;29;20039;-82
2022/10/24 01:47:07;;;;;;;5.50;2.17;;;;;;;;;;4928434;29;20389;-82
2022/10/24 01:49:36;;;;;;;6.68;1.52;;;;;;;;;;4927869;29;20028;-83
2022/10/24 01:52:07;;;;;;;7.13;2.00;;;;;;;;;;4909795;29;20488;-82
2022/10/24 01:54:33;;;;;;;4.90;1.70;;;;;;;;;;4915206;29;20039;-83
2022/10/24 01:56:58;;;;;;;6.85;1.73;;;;;;;;;;4914387;29;20122;-83
2022/10/24 01:59:27;;;;;;;5.80;2.42;;;;;;;;;;4914882;29;20442;-82
2022/10/24 02:02:13;;;;;;;4.00;1.73;;;;;;;;;;4926620;29;20024;-83
2022/10/24 02:05:05;;;;;;;5.47;1.77;;;;;;;;;;4913234;29;20024;-83
2022/10/24 02:07:32;;;;;;;5.10;1.70;;;;;;;;;;4927188;29;20488;-83
2022/10/24 02:10:10;;;;;;;3.55;1.60;;;;;;;;;;4932242;29;20466;-82
2022/10/24 02:12:39;;;;;;;6.53;1.90;;;;;;;;;;4916461;29;20126;-83
2022/10/24 02:15:23;;;;;;;4.32;1.60;;;;;;;;;;4916710;29;20032;-83
2022/10/24 02:17:48;;;;;;;;;;;;;;;;;;4916983;29;20527;-83
2022/10/24 02:20:14;;;;;;;4.93;1.85;;;;;;;;;;4917352;29;19923;-82
2022/10/24 02:23:03;;;;;;;6.40;1.42;;;;;;;;;;4934771;29;20027;-83
2022/10/24 02:25:35;;;;;;;3.78;1.63;;;;;;;;;;4917244;29;20066;-83
2022/10/24 02:28:07;;;;;;;4.77;1.40;;;;;;;;;;4932564;29;20784;-83
2022/10/24 02:30:38;;;;;;;6.85;1.88;;;;;;;;;;4931456;29;20492;-83
2022/10/24 02:33:04;;;;;;;4.82;1.40;;;;;;;;;;4931806;29;20476;-82
2022/10/24 02:35:33;;;;;;;5.22;1.50;;;;;;;;;;4932828;29;20154;-82
2022/10/24 02:38:25;;;;;;;4.38;1.60;;;;;;;;;;4918215;29;20095;-82
2022/10/24 02:40:52;;;;;;;4.57;1.30;;;;;;;;;;4931034;29;20039;-83
2022/10/24 02:43:20;;;;;;;4.95;1.42;;;;;;;;;;4916654;29;20484;-82
2022/10/24 02:45:48;;;;;;;3.92;1.60;;;;;;;;;;4932466;29;20110;-82
2022/10/24 02:48:17;;;;;;;2.63;1.25;;;;;;;;;;4933116;29;20091;-83
2022/10/24 02:50:43;;;;;;;5.50;1.52;;;;;;;;;;4930731;29;20139;-83
2022/10/24 02:53:12;;;;;;;7.30;1.50;;;;;;;;;;4933668;29;20461;-83
2022/10/24 02:55:38;;;;;;;6.47;1.65;;;;;;;;;;4931933;29;20031;-83
2022/10/24 02:58:03;;;;;;;4.88;1.48;;;;;;;;;;4917533;29;20031;-83
2022/10/24 03:00:29;;;;;;;3.33;1.40;;;;;;;;;;4915372;29;20036;-83
2022/10/24 03:02:54;;;;;;;5.20;1.40;;;;;;;;;;4917064;29;20396;-83
2022/10/24 03:05:20;;;;;;;6.10;1.30;;;;;;;;;;4915175;29;20120;-83
2022/10/24 03:07:45;;;;;;;6.60;1.33;;;;;;;;;;4917372;29;20044;-83
2022/10/24 03:10:10;;;;;;;4.70;1.25;;;;;;;;;;4932062;29;20027;-83
2022/10/24 03:12:36;;;;;;;3.50;1.15;;;;;;;;;;4930287;29;20036;-84
2022/10/24 03:15:02;;;;;;;4.53;1.17;;;;;;;;;;4915324;29;20042;-84
2022/10/24 03:17:28;;;;;;;4.30;1.15;;;;;;;;;;4928070;29;20087;-82
2022/10/24 03:19:53;;;;;;;5.95;1.15;;;;;;;;;;4934622;29;20032;-83
2022/10/24 03:22:18;;;;;;;2.40;1.15;;;;;;;;;;4915217;29;20015;-82
2022/10/24 03:24:44;;;;;;;5.05;1.10;;;;;;;;;;4913115;29;20072;-82
2022/10/24 03:27:09;;;;;;;5.35;1.05;;;;;;;;;;4906157;29;20362;-83
2022/10/24 03:29:35;;;;;;;4.25;1.10;;;;;;;;;;4915669;29;20058;-82
2022/10/24 03:32:00;;;;;;;2.60;1.10;;;;;;;;;;4912369;29;20059;-82
2022/10/24 03:34:25;;;;;;;3.38;1.15;;;;;;;;;;4914815;29;20032;-83
2022/10/24 03:36:51;;;;;;;3.00;1.42;;;;;;;;;;4913879;29;20032;-82
2022/10/24 03:39:16;;;;;;;5.20;0.90;;;;;;;;;;4914282;29;20032;-83
2022/10/24 03:41:42;;;;;;;7.05;1.23;;;;;;;;;;4911336;29;20041;-82
2022/10/24 03:44:07;;;;;;;3.90;0.70;;;;;;;;;;4909591;29;20039;-83
2022/10/24 03:46:32;;;;;;;3.70;0.80;;;;;;;;;;4912789;29;20035;-83
2022/10/24 03:48:58;;;;;;;3.13;0.90;;;;;;;;;;4912083;29;20031;-83
2022/10/24 03:51:23;;;;;;;5.53;0.90;;;;;;;;;;4913436;29;20032;-83
2022/10/24 03:53:49;;;;;;;6.18;1.13;;;;;;;;;;4910885;29;20075;-82
2022/10/24 03:56:14;;;;;;;4.30;0.90;;;;;;;;;;4913695;29;20503;-82
2022/10/24 03:58:39;;;;;;;3.47;1.13;;;;;;;;;;4913645;29;20036;-83
2022/10/24 04:01:05;;;;;;;3.75;0.95;;;;;;;;;;4912044;29;20024;-83
2022/10/24 04:03:30;;;;;;;2.00;1.10;;;;;;;;;;4912674;29;20032;-83
2022/10/24 04:05:56;;;;;;;3.33;1.00;;;;;;;;;;4910209;29;20038;-82
2022/10/24 04:08:21;;;;;;;2.92;0.90;;;;;;;;;;4922695;29;20559;-83
2022/10/24 04:10:48;;;;;;;4.25;0.90;;;;;;;;;;4910962;29;20032;-82
2022/10/24 04:13:13;;;;;;;3.75;0.95;;;;;;;;;;4910062;29;20028;-83
2022/10/24 04:15:39;;;;;;;3.70;0.90;;;;;;;;;;4910984;29;20031;-83
2022/10/24 04:18:04;;;;;;;2.72;0.90;;;;;;;;;;4924468;29;20511;-83
2022/10/24 04:20:30;;;;;;;4.15;1.00;;;;;;;;;;4907998;29;20028;-83
2022/10/24 04:22:55;;;;;;;5.15;1.20;;;;;;;;;;4927941;28;20480;-83
2022/10/24 04:25:21;;;;;;;4.68;1.10;;;;;;;;;;4912326;29;20063;-83
2022/10/24 04:27:46;;;;;;;4.30;0.90;;;;;;;;;;4930335;29;20430;-83
2022/10/24 04:30:13;;;;;;;6.03;0.98;;;;;;;;;;4930096;29;20039;-84
2022/10/24 04:32:38;;;;;;;5.43;1.42;;;;;;;;;;4913943;29;20452;-83
2022/10/24 04:35:04;;;;;;;4.88;1.05;;;;;;;;;;4930376;29;20031;-83
2022/10/24 04:37:30;;;;;;;3.90;1.08;;;;;;;;;;4926607;29;20058;-83
2022/10/24 04:39:56;;;;;;;2.50;1.10;;;;;;;;;;4924088;29;20038;-83
2022/10/24 04:42:22;;;;;;;3.92;0.90;;;;;;;;;;4929183;29;20107;-84
2022/10/24 04:44:47;;;;;;;7.82;1.40;;;;;;;;;;4915373;29;20207;-83
2022/10/24 04:47:13;;;;;;;5.13;1.40;;;;;;;;;;4912743;29;20122;-82
2022/10/24 04:49:38;;;;;;;4.25;1.10;;;;;;;;;;4929365;29;20032;-83
2022/10/24 04:52:04;;;;;;;4.43;1.17;;;;;;;;;;4912966;29;20019;-83
2022/10/24 04:54:29;;;;;;;3.25;1.15;;;;;;;;;;4927686;29;20419;-84
2022/10/24 04:56:55;;;;;;;4.13;1.13;;;;;;;;;;4909777;29;20098;-84
2022/10/24 04:59:20;;;;;;;3.97;1.02;;;;;;;;;;4932545;29;20484;-83
2022/10/24 05:01:45;;;;;;;2.35;0.90;;;;;;;;;;4926695;29;20119;-83
2022/10/24 05:04:11;;;;;;;3.53;1.15;;;;;;;;;;4914704;29;20031;-83
2022/10/24 05:06:37;;;;;;;4.38;1.00;;;;;;;;;;4914119;29;20423;-83
2022/10/24 05:09:03;;;;;;;5.72;1.15;;;;;;;;;;4910903;29;20571;-82
2022/10/24 05:11:28;;;;;;;3.83;1.00;;;;;;;;;;4926648;29;20053;-83
2022/10/24 05:13:54;;;;;;;1.83;0.82;;;;;;;;;;4912153;29;20126;-83
2022/10/24 05:16:19;;;;;;;5.38;0.98;;;;;;;;;;4914591;29;20388;-82
2022/10/24 05:18:44;;;;;;;5.05;1.00;;;;;;;;;;4914550;29;20036;-84
2022/10/24 05:21:10;;;;;;;2.92;0.70;;;;;;;;;;4914732;29;20471;-83
2022/10/24 05:23:35;;;;;;;4.63;1.10;;;;;;;;;;4914845;29;20051;-83
2022/10/24 05:26:00;;;;;;;4.57;0.90;;;;;;;;;;4912964;29;20046;-83
2022/10/24 05:28:26;;;;;;;6.47;1.10;;;;;;;;;;4908980;29;20514;-83
2022/10/24 05:30:51;;;;;;;2.70;0.90;;;;;;;;;;4915278;29;20034;-82
2022/10/24 05:33:17;;;;;;;3.58;0.80;;;;;;;;;;4927689;29;20058;-83
2022/10/24 05:35:42;;;;;;;3.13;0.90;;;;;;;;;;4910809;29;20031;-83
2022/10/24 05:38:08;;;;;;;4.85;0.90;;;;;;;;;;4914729;29;20480;-83
2022/10/24 05:40:33;;;;;;;2.65;0.90;;;;;;;;;;4933868;29;20035;-83
2022/10/24 05:42:58;;;;;;;4.13;0.80;;;;;;;;;;4930258;29;20118;-83
2022/10/24 05:45:24;;;;;;;2.63;0.70;;;;;;;;;;4931677;29;20027;-82
2022/10/24 05:47:49;;;;;;;4.57;1.00;;;;;;;;;;4917142;29;20046;-83
2022/10/24 05:50:15;;;;;;;4.43;1.17;;;;;;;;;;4935400;29;20102;-83
2022/10/24 05:52:41;;;;;;;5.85;0.90;;;;;;;;;;4918920;29;20032;-82
2022/10/24 05:55:08;;;;;;;4.38;0.98;;;;;;;;;;4932594;29;20736;-83
2022/10/24 05:57:34;;;;;;;2.78;0.80;;;;;;;;;;4918956;29;20031;-83
2022/10/24 05:59:59;;;;;;;4.85;0.80;;;;;;;;;;4916648;29;20035;-83
2022/10/24 06:02:25;;;;;;;5.80;1.10;;;;;;;;;;4917512;29;20023;-83
2022/10/24 06:04:51;;;;;;;3.33;0.95;;;;;;;;;;4925221;29;20043;-83
2022/10/24 06:07:17;;;;;;;4.45;1.00;;;;;;;;;;4914622;29;20090;-83
2022/10/24 06:09:43;;;;;;;5.60;0.95;;;;;;;;;;4930776;29;20436;-84
2022/10/24 06:12:09;;;;;;;4.43;1.13;;;;;;;;;;4920476;29;20027;-82
2022/10/24 06:14:36;;;;;;;4.88;1.00;;;;;;;;;;4933008;29;20070;-83
2022/10/24 06:17:01;;;;;;;5.22;1.05;;;;;;;;;;4921012;29;20118;-83
2022/10/24 06:19:27;;;;;;;6.40;1.20;;;;;;;;;;4918114;29;20509;-83
2022/10/24 06:21:52;;;;;;;6.88;0.82;;;;;;;;;;4934287;29;20039;-83
2022/10/24 06:24:17;;;;;;;3.28;1.00;;;;;;;;;;4934506;29;20416;-84
2022/10/24 06:26:43;;;;;;;4.20;1.10;;;;;;;;;;4920257;29;20082;-83
2022/10/24 06:29:09;;;;;;;3.67;0.95;;;;;;;;;;4934579;29;20027;-83
2022/10/24 06:31:35;;;;;;;4.70;1.05;;;;;;;;;;4911943;29;21544;-84
2022/10/24 06:34:00;;;;;;;5.70;1.10;;;;;;;;;;4911072;29;20468;-83
2022/10/24 06:36:26;;;;;;;4.72;1.10;;;;;;;;;;4929743;29;20166;-83
2022/10/24 06:38:53;;;;;;;6.40;1.10;;;;;;;;;;4917663;29;20125;-84
2022/10/24 06:41:18;;;;;;;6.03;0.93;;;;;;;;;;4911532;29;20035;-84
2022/10/24 06:43:44;;;;;;;3.03;0.90;;;;;;;;;;4914052;29;20024;-83
2022/10/24 06:46:12;;;;;;;5.88;1.00;;;;;;;;;;4910956;29;20031;-83
2022/10/24 06:48:38;;;;;;;4.97;0.93;;;;;;;;;;4926806;29;20028;-83
2022/10/24 06:51:04;;;;;;;3.72;0.95;;;;;;;;;;4930703;29;20035;-83
2022/10/24 06:53:29;;;;;;;4.70;1.00;;;;;;;;;;4930674;29;20378;-83
2022/10/24 06:55:59;;;;;;;4.20;0.88;;;;;;;;;;4918910;29;20034;-83
2022/10/24 06:58:24;;;;;;;5.80;1.00;;;;;;;;;;4916015;29;20527;-83
2022/10/24 07:00:50;;;;;;;6.47;1.10;;;;;;;;;;4918566;29;20027;-82
2022/10/24 07:03:15;;;;;;;7.57;1.23;;;;;;;;;;4917848;29;20524;-83
2022/10/24 07:05:41;;;;;;;6.50;1.10;;;;;;;;;;4919627;29;20038;-83
2022/10/24 07:08:06;;;;;;;5.00;1.00;;;;;;;;;;4933571;29;20055;-84
2022/10/24 07:10:32;;;;;;;5.10;0.95;;;;;;;;;;4907153;29;20404;-83
2022/10/24 07:12:57;;;;;;;5.10;1.17;;;;;;;;;;4935427;29;20032;-83
2022/10/24 07:15:22;;;;;;;7.40;1.02;;;;;;;;;;4911425;29;20032;-84
2022/10/24 07:17:48;;;;;;;3.22;0.90;;;;;;;;;;4909114;29;20042;-83
2022/10/24 07:20:13;;;;;;;7.45;1.30;;;;;;;;;;4913149;29;20063;-84
2022/10/24 07:22:40;;;;;;;5.93;0.95;;;;;;;;;;4912295;29;20492;-83
2022/10/24 07:25:06;;;;;;;5.70;1.10;;;;;;;;;;4915891;29;20055;-84
2022/10/24 07:27:32;;;;;;;4.32;1.00;;;;;;;;;;4909124;29;20055;-83
2022/10/24 07:29:58;;;;;;;7.15;1.20;;;;;;;;;;4924827;29;20035;-84
2022/10/24 07:32:23;;;;;;;3.67;1.08;;;;;;;;;;4905783;29;20401;-84
2022/10/24 07:34:49;;;;;;;5.22;0.82;;;;;;;;;;4908206;29;20034;-83
2022/10/24 07:37:15;;;;;;;3.22;0.90;;;;;;;;;;4911804;29;20038;-82
2022/10/24 07:39:45;;;;;;;3.20;0.80;;;;;;;;;;4914660;29;20066;-82
2022/10/24 07:42:12;;;;;;;5.57;0.80;;;;;;;;;;4914220;29;20028;-82
2022/10/24 07:44:38;;;;;;;6.50;1.00;;;;;;;;;;4914144;29;20119;-83
2022/10/24 07:47:05;;;;;;;7.53;0.75;;;;;;;;;;4911015;29;20123;-83
2022/10/24 07:49:32;;;;;;;4.28;0.75;;;;;;;;;;4913489;29;20403;-82
2022/10/24 07:51:57;;;;;;;6.03;1.05;;;;;;;;;;4918216;29;20027;-83
2022/10/24 07:54:24;;;;;;;6.50;1.27;;;;;;;;;;4926249;29;20110;-83
2022/10/24 07:56:50;;;;;;;3.58;0.77;;;;;;;;;;4916908;29;20027;-83
2022/10/24 07:59:16;;;;;;;6.93;1.15;;;;;;;;;;4925745;29;20032;-83
2022/10/24 08:01:41;;;;;;;5.53;1.15;;;;;;;;;;4914604;29;20027;-82
2022/10/24 08:04:08;;;;;;;6.28;0.98;;;;;;;;;;4928701;29;20031;-82
2022/10/24 08:06:33;;;;;;;4.78;1.02;;;;;;;;;;4914675;29;20028;-83
2022/10/24 08:08:59;;;;;;;4.57;0.75;;;;;;;;;;4911157;29;20055;-83
2022/10/24 08:11:27;;;;;;;6.03;1.08;;;;;;;;;;4915125;29;20123;-83
2022/10/24 08:13:53;;;;;;;6.78;0.98;;;;;;;;;;4924212;29;20087;-83
2022/10/24 08:16:21;;;;;;;4.85;0.98;;;;;;;;;;4914249;29;20027;-82
2022/10/24 08:18:46;;;;;;;6.40;1.17;;;;;;;;;;4926879;29;20051;-83
2022/10/24 08:21:14;;;;;;;3.03;1.05;;;;;;;;;;4909141;29;20069;-83
2022/10/24 08:23:42;;;;;;;5.97;0.60;;;;;;;;;;4909699;29;20055;-82
2022/10/24 08:26:11;;;;;;;6.05;0.88;;;;;;;;;;4911101;29;20039;-82
2022/10/24 08:28:36;;;;;;;5.32;0.70;;;;;;;;;;4916400;29;20453;-82
2022/10/24 08:31:05;;;;;;;4.70;0.70;;;;;;;;;;4916770;29;20059;-82
2022/10/24 08:33:31;;;;;;;3.33;0.70;;;;;;;;;;4930950;29;20043;-83
2022/10/24 08:36:00;;;;;;;3.90;0.60;;;;;;;;;;4914915;29;20039;-82
2022/10/24 08:38:26;;;;;;;4.60;0.70;;;;;;;;;;4928614;29;20110;-82
2022/10/24 08:40:52;;;;;;;5.10;0.85;;;;;;;;;;4916754;29;20031;-82
2022/10/24 08:43:19;;;;;;;5.53;0.82;;;;;;;;;;4918434;29;20038;-82
2022/10/24 08:45:54;;;;;;;5.95;0.70;;;;;;;;;;4911188;29;20095;-82
2022/10/24 08:48:26;;;;;;;3.95;0.60;;;;;;;;;;4923282;29;20482;-82
2022/10/24 08:50:58;;;;;;;7.65;1.02;;;;;;;;;;4914323;29;20499;-83
2022/10/24 08:53:27;;;;;;;5.25;1.20;;;;;;;;;;4926184;29;20584;-83
2022/10/24 08:55:54;;;;;;;4.00;0.70;;;;;;;;;;4911294;29;20044;-81
2022/10/24 08:58:22;;;;;;;5.28;1.08;;;;;;;;;;4910258;29;20444;-83
2022/10/24 09:00:50;;;;;;;5.50;0.75;;;;;;;;;;4906299;29;20020;-82
2022/10/24 09:03:59;;;;;;;4.07;0.88;;;;;;;;;;4925100;29;20480;-82
2022/10/24 09:06:33;;;;;;;4.40;0.77;;;;;;;;;;4916545;29;20028;-82
2022/10/24 09:09:02;;;;;;;3.25;1.00;;;;;;;;;;4926911;29;20412;-82
2022/10/24 09:11:42;;;;;;;4.38;0.80;;;;;;;;;;4914445;29;20526;-82
2022/10/24 09:14:35;;;;;;;3.20;0.70;;;;;;;;;;4929682;29;20833;-82
2022/10/24 09:17:19;;;;;;;1.73;0.60;;;;;;;;;;4924273;29;20070;-82
2022/10/24 09:19:48;;;;;;;;;;;;;;;;;;4925621;29;20091;-83
2022/10/24 09:22:13;;;;;;;3.25;0.70;;;;;;;;;;4917114;29;20384;-82
2022/10/24 09:24:50;;;;;;;5.68;1.45;;;;;;;;;;4909134;29;20479;-82
2022/10/24 09:27:25;;;;;;;4.10;0.68;;;;;;;;;;4911467;29;20051;-82
2022/10/24 09:29:51;;;;;;;3.50;0.90;;;;;;;;;;4911969;29;20032;-82
2022/10/24 09:32:20;;;;;;;4.97;0.70;;;;;;;;;;4912857;29;20490;-83
2022/10/24 09:34:46;;;;;;;3.47;0.70;;;;;;;;;;4911166;29;20064;-82
2022/10/24 09:37:42;;;;;;;4.00;0.90;;;;;;;;;;4909991;29;20162;-82
2022/10/24 09:40:20;;;;;;;4.65;0.70;;;;;;;;;;4910630;29;20024;-80
2022/10/24 09:43:17;;;;;;;2.97;0.73;;;;;;;;;;4905094;29;20035;-83
2022/10/24 09:46:20;;;;;;;3.03;0.70;;;;;;;;;;4903454;29;20044;-82
2022/10/24 09:48:57;;;;;;;5.80;1.00;;;;;;;;;;4901687;29;20044;-83
2022/10/24 09:51:25;;;;;;;3.03;0.75;;;;;;;;;;4927080;28;20484;-83
2022/10/24 09:54:20;;;;;;;5.43;0.90;;;;;;;;;;4916555;29;20437;-82
2022/10/24 09:56:55;;;;;;;2.05;0.60;;;;;;;;;;4915905;29;20139;-83
2022/10/24 09:59:56;;;;;;;4.68;0.73;;;;;;;;;;4911064;29;20365;-82
2022/10/24 10:02:33;;;;;;;6.60;0.80;;;;;;;;;;4920454;29;20488;-83
2022/10/24 10:05:22;;;;;;;6.03;1.10;;;;;;;;;;4918463;29;20481;-83
2022/10/24 10:07:54;;;;;;;5.35;1.08;;;;;;;;;;4923177;29;20477;-83
2022/10/24 10:10:40;;;;;;;4.78;0.95;;;;;;;;;;4906813;29;20031;-83
2022/10/24 10:13:22;;;;;;;3.60;0.80;;;;;;;;;;4922685;28;19927;-83
2022/10/24 10:15:52;;;;;;;5.40;0.90;;;;;;;;;;4907950;29;20515;-83
2022/10/24 10:18:41;;;;;;;4.30;0.77;;;;;;;;;;4921116;29;20030;-83
2022/10/24 10:21:07;;;;;;;3.67;0.60;;;;;;;;;;4922917;29;20058;-83
2022/10/24 10:23:41;;;;;;;4.25;0.70;;;;;;;;;;4920987;29;20048;-83
2022/10/24 10:26:16;;;;;;;4.35;0.70;;;;;;;;;;4907375;29;20593;-83
2022/10/24 10:29:00;;;;;;;5.45;0.93;;;;;;;;;;4928703;29;20168;-84
2022/10/24 10:31:54;;;;;;;4.97;0.93;;;;;;;;;;4921267;29;20047;-82
2022/10/24 10:34:21;;;;;;;;;;;;;;;;;;4928278;29;20464;-82
2022/10/24 10:37:05;;;;;;;2.28;0.68;;;;;;;;;;4925502;29;20026;-82
2022/10/24 10:39:44;;;;;;;4.78;0.93;;;;;;;;;;4926718;29;20127;-82
2022/10/24 10:42:11;;;;;;;2.80;0.90;;;;;;;;;;4923924;29;20032;-82
2022/10/24 10:44:58;;;;;;;6.22;0.90;;;;;;;;;;4912895;29;20064;-82
2022/10/24 10:47:46;;;;;;;3.70;0.80;;;;;;;;;;4908616;29;20028;-82
2022/10/24 10:50:37;;;;;;;3.10;0.70;;;;;;;;;;4916580;29;20059;-83
2022/10/24 10:53:40;;;;;;;4.38;0.70;;;;;;;;;;4921265;29;20164;-82
2022/10/24 10:56:33;;;;;;;3.38;1.02;;;;;;;;;;4922390;29;20474;-82
2022/10/24 10:59:07;;;;;;;2.92;0.80;;;;;;;;;;4928088;29;20036;-82
2022/10/24 11:01:57;;;;;;;4.88;0.85;;;;;;;;;;4926293;29;20051;-82
2022/10/24 11:04:36;;;;;;;3.15;0.70;;;;;;;;;;4930267;29;20071;-83
2022/10/24 11:07:50;;;;;;;4.68;0.68;;;;;;;;;;4912138;29;20087;-82
2022/10/24 11:10:26;;;;;;;3.17;0.80;;;;;;;;;;4904569;29;20087;-83
2022/10/24 11:12:56;;;;;;;2.05;0.75;;;;;;;;;;4915683;29;20617;-82
2022/10/24 11:15:35;;;;;;;3.05;0.77;;;;;;;;;;4913975;29;20024;-82
2022/10/24 11:18:17;;;;;;;5.53;0.90;;;;;;;;;;4913166;29;20032;-83
2022/10/24 11:20:52;;;;;;;3.92;0.90;;;;;;;;;;4908857;29;20036;-82
2022/10/24 11:23:40;;;;;;;3.15;0.73;;;;;;;;;;4917032;29;20138;-83
2022/10/24 11:26:16;;;;;;;3.17;1.05;;;;;;;;;;4912948;29;20032;-83
2022/10/24 11:29:12;;;;;;;3.30;0.65;;;;;;;;;;4926570;29;20032;-83
2022/10/24 11:31:52;;;;;;;5.28;0.90;;;;;;;;;;4929182;29;20527;-83
2022/10/24 11:34:31;;;;;;;3.92;0.90;;;;;;;;;;4914892;29;20132;-83
2022/10/24 11:37:08;;;;;;;5.35;1.20;;;;;;;;;;4924983;29;20023;-83
2022/10/24 11:39:58;;;;;;;4.93;1.15;;;;;;;;;;4923916;29;20026;-84
2022/10/24 11:42:51;;;;;;;2.97;0.70;;;;;;;;;;4905133;29;20131;-83
2022/10/24 11:45:26;;;;;;;5.57;1.63;;;;;;;;;;4921677;29;20107;-83
2022/10/24 11:48:29;;;;;;;8.15;1.05;;;;;;;;;;4924905;29;20400;-83
2022/10/24 11:50:59;;;;;;;3.15;0.80;;;;;;;;;;4917130;29;20078;-84
2022/10/24 11:53:30;;;;;;;4.32;1.10;;;;;;;;;;4924194;29;20050;-83
2022/10/24 11:56:14;;;;;;;6.63;1.67;;;;;;;;;;4930121;29;20038;-84
2022/10/24 11:59:01;;;;;;;4.35;0.98;;;;;;;;;;4903649;29;20349;-84
2022/10/24 12:01:54;;;;;;;3.03;0.80;;;;;;;;;;4908867;29;20042;-84
2022/10/24 12:04:29;;;;;;;2.17;0.57;;;;;;;;;;4924444;29;20046;-84
2022/10/24 12:07:05;;;;;;;3.15;0.60;;;;;;;;;;4905972;29;20665;-84
2022/10/24 12:09:43;;;;;;;4.38;1.10;;;;;;;;;;4910569;29;20035;-84
2022/10/24 12:12:17;;;;;;;4.90;1.05;;;;;;;;;;4908413;29;20086;-84
2022/10/24 12:15:20;;;;;;;5.10;1.10;;;;;;;;;;4922087;29;20499;-84
2022/10/24 12:18:02;;;;;;;5.10;0.90;;;;;;;;;;4923576;29;20039;-84
2022/10/24 12:20:28;;;;;;;5.05;0.95;;;;;;;;;;4904122;29;20293;-84
2022/10/24 12:22:54;;;;;;;4.18;0.80;;;;;;;;;;4926855;29;20040;-83
2022/10/24 12:25:32;;;;;;;3.22;0.90;;;;;;;;;;4910585;29;20039;-83
2022/10/24 12:28:01;;;;;;;5.18;0.90;;;;;;;;;;4930830;29;20086;-83
2022/10/24 12:30:30;;;;;;;4.78;1.00;;;;;;;;;;4921328;29;20032;-83
2022/10/24 12:33:06;;;;;;;4.53;0.90;;;;;;;;;;4925588;29;20032;-83
2022/10/24 12:35:55;;;;;;;4.15;0.88;;;;;;;;;;4921638;29;20035;-83
2022/10/24 12:38:27;;;;;;;6.25;1.40;;;;;;;;;;4908312;29;20031;-84
2022/10/24 12:41:08;;;;;;;3.95;1.10;;;;;;;;;;4919226;29;20032;-83
2022/10/24 12:43:38;;;;;;;6.20;1.27;;;;;;;;;;4923449;29;20051;-84
2022/10/24 12:46:13;;;;;;;4.93;1.20;;;;;;;;;;4906031;29;20738;-84
2022/10/24 12:48:43;;;;;;;4.88;1.40;;;;;;;;;;4924042;29;20038;-84
2022/10/24 12:51:30;;;;;;;5.18;1.20;;;;;;;;;;4905367;29;20044;-83
2022/10/24 12:54:16;;;;;;;4.18;1.08;;;;;;;;;;4919095;29;20040;-84
2022/10/24 12:56:50;;;;;;;4.88;1.20;;;;;;;;;;4910345;29;20034;-84
2022/10/24 12:59:18;;;;;;;4.88;0.98;;;;;;;;;;4926050;29;20076;-84
2022/10/24 13:01:44;;;;;;;4.38;1.10;;;;;;;;;;4926133;29;20503;-84
2022/10/24 13:04:27;;;;;;;6.43;1.60;;;;;;;;;;4909982;29;20039;-84
2022/10/24 13:07:14;;;;;;;5.93;1.33;;;;;;;;;;4905389;29;20087;-84
2022/10/24 13:09:51;;;;;;;5.35;1.20;;;;;;;;;;4913585;29;20031;-84
2022/10/24 13:12:54;;;;;;;7.10;1.35;;;;;;;;;;4916946;29;20031;-84
2022/10/24 13:15:28;;;;;;;5.27;1.27;;;;;;;;;;4924861;29;20027;-83
2022/10/24 13:18:06;;;;;;;5.60;1.35;;;;;;;;;;4929507;29;20278;-83
2022/10/24 13:20:37;;;;;;;4.75;1.00;;;;;;;;;;4919413;29;20204;-84
2022/10/24 13:23:16;;;;;;;4.93;1.13;;;;;;;;;;4902067;29;20055;-84
2022/10/24 13:25:42;;;;;;;3.88;1.00;;;;;;;;;;4916488;29;20043;-84
2022/10/24 13:28:23;;;;;;;4.55;0.95;;;;;;;;;;4907657;29;20031;-83
2022/10/24 13:31:14;;;;;;;4.47;0.90;;;;;;;;;;4898178;29;20046;-84
2022/10/24 13:33:41;;;;;;;4.10;1.02;;;;;;;;;;4916266;29;20547;-83
2022/10/24 13:36:21;;;;;;;8.20;1.30;;;;;;;;;;4900831;29;20560;-84
2022/10/24 13:38:55;;;;;;;4.15;0.90;;;;;;;;;;4922542;29;20035;-84
2022/10/24 13:41:28;;;;;;;6.93;1.20;;;;;;;;;;4913500;29;20604;-84
2022/10/24 13:48:31;;;;;;;6.25;1.10;;;;;;;;;;4857283;29;20520;-84
2022/10/24 13:51:18;;;;;;;6.15;1.00;;;;;;;;;;4858619;29;20470;-84
2022/10/24 13:53:55;;;;;;;5.28;0.90;;;;;;;;;;4879372;29;20385;-84
2022/10/24 13:56:23;;;;;;;3.80;0.95;;;;;;;;;;4920523;29;20039;-84
2022/10/24 13:58:54;;;;;;;1.73;0.60;;;;;;;;;;4905400;29;20490;-84
2022/10/24 14:02:13;;;;;;;;;;;;;;;;;;;;;
2022/10/24 14:04:59;;;;;;;5.43;1.10;;;;;;;;;;4888689;29;20044;-84
2022/10/24 14:07:32;;;;;;;3.10;0.95;;;;;;;;;;4919424;29;20536;-83
2022/10/24 14:10:11;;;;;;;4.05;0.88;;;;;;;;;;4927099;29;20036;-83
2022/10/24 14:12:38;;;;;;;4.68;0.98;;;;;;;;;;4908168;29;20071;-83
2022/10/24 14:15:19;;;;;;;4.07;0.88;;;;;;;;;;4913627;29;20031;-83
2022/10/24 14:18:11;;;;;;;3.85;0.90;;;;;;;;;;4914034;29;20041;-84
2022/10/24 14:20:37;;;;;;;4.63;0.98;;;;;;;;;;4915306;29;20075;-84
2022/10/24 14:23:26;;;;;;;2.80;0.77;;;;;;;;;;4929439;29;20035;-83
2022/10/24 14:25:59;;;;;;;4.95;0.80;;;;;;;;;;4930116;29;20432;-84
2022/10/24 14:28:52;;;;;;;2.78;0.85;;;;;;;;;;4921723;29;20045;-84
2022/10/24 14:31:42;;;;;;;3.07;0.80;;;;;;;;;;4929853;29;20449;-84
2022/10/24 14:34:20;;;;;;;3.55;0.80;;;;;;;;;;4918681;29;20036;-83
2022/10/24 14:36:48;;;;;;;4.53;1.33;;;;;;;;;;4932563;29;20484;-83
2022/10/24 14:39:33;;;;;;;1.73;0.60;;;;;;;;;;4928379;29;20035;-84
2022/10/24 14:42:01;;;;;;;5.63;0.77;;;;;;;;;;4930383;29;20548;-84
2022/10/24 14:44:30;;;;;;;3.22;0.68;;;;;;;;;;4916677;29;20119;-84
2022/10/24 14:47:27;;;;;;;4.80;0.70;;;;;;;;;;4914638;29;20385;-84
2022/10/24 14:49:52;;;;;;;2.85;0.63;;;;;;;;;;4914682;29;20032;-84
2022/10/24 14:52:35;;;;;;;5.45;0.90;;;;;;;;;;4928851;29;20465;-85
2022/10/24 14:55:23;;;;;;;6.60;1.37;;;;;;;;;;4917098;29;20031;-84
2022/10/24 14:57:50;;;;;;;3.97;0.77;;;;;;;;;;4904282;29;20050;-84
2022/10/24 15:00:39;;;;;;;5.65;1.00;;;;;;;;;;4914073;29;20437;-84
2022/10/24 15:03:19;;;;;;;3.00;0.70;;;;;;;;;;4929980;29;20481;-84
2022/10/24 15:05:58;;;;;;;3.25;0.85;;;;;;;;;;4915092;29;20040;-84
2022/10/24 15:08:34;;;;;;;4.45;1.10;;;;;;;;;;4917483;29;20129;-83
2022/10/24 15:11:23;;;;;;;4.68;1.30;;;;;;;;;;4917455;29;21928;-85
2022/10/24 15:13:58;;;;;;;6.10;1.55;;;;;;;;;;4915233;29;20040;-83
2022/10/24 15:16:50;;;;;;;3.60;1.50;;;;;;;;;;4916472;29;20396;-84
2022/10/24 15:19:19;;;;;;;3.38;1.10;;;;;;;;;;4910858;29;20063;-84
2022/10/24 15:21:50;;;;;;;6.68;1.40;;;;;;;;;;4928328;29;20592;-83